KABI/ABI METAR and TAF weather

Enter ICAO airport designator
Station Type Date Time Source
KABI METAR 2022/06/30 13:52 UTC NOAA

KABI 301352Z 22008KT 10SM CLR 28/15 A3010 RMK AO2 SLP161 T02830150


Station Type Date Time Source
KABI Decoded METAR 2022/06/30 13:52 UTC NOAA

ABILENE REGIONAL AIRPORT, TX, United States (KABI) 32-25N 099-41W 548M
Jun 30, 2022 - 09:52 AM EDT / 2022.06.30 1352 UTC
Wind: from the SW (220 degrees) at 9 MPH (8 KT):0
Visibility: 10 mile(s):0
Sky conditions: clear
Temperature: 82.9 F (28.3 C)
Dew Point: 59.0 F (15.0 C)
Relative Humidity: 44%
Pressure (altimeter): 30.1 in. Hg (1019 hPa)
ob: KABI 301352Z 22008KT 10SM CLR 28/15 A3010 RMK AO2 SLP161 T02830150
cycle: 14

Station Type Date Time Source
KABI TAF 2022/06/30 12:22 UTC NOAA

TAF KABI 301120Z 3012/0112 VRB06KT P6SM SKC
FM302200 14008G15KT P6SM SKC
FM010200 15008KT P6SM FEW250

Example: see airport list